Time;durP1;ratioP1;P1;durP2;ratioP2;P2;SDS_P1;SDS_P2;PMS_P1;PMS_P2;Temp;Humidity;BMP_temperature;BMP_pressure;BME280_temperature;BME280_humidity;BME280_pressure;Samples;Min_cycle;Max_cycle;Signal;HPM_P1;HPM_P2
2024/03/21 00:00:13;;;;;;;11.53;5.60;;;;;;;12.91;64.19;101234.72;4887126;29;20804;-81
2024/03/21 00:02:41;;;;;;;6.40;4.10;;;;;;;12.90;64.12;101238.47;4891028;29;20439;-80
2024/03/21 00:05:11;;;;;;;6.87;5.90;;;;;;;12.85;64.70;101227.41;4904488;29;20409;-79
2024/03/21 00:07:38;;;;;;;9.60;5.47;;;;;;;12.85;65.07;101235.56;4888095;29;20436;-81
2024/03/21 00:10:09;;;;;;;6.70;4.00;;;;;;;12.80;64.79;101224.47;4890571;29;20447;-80
2024/03/21 00:12:37;;;;;;;6.57;5.50;;;;;;;12.74;65.20;101220.72;4889547;29;20696;-81
2024/03/21 00:15:06;;;;;;;6.57;3.83;;;;;;;12.79;64.98;101220.06;4899397;29;20471;-80
2024/03/21 00:17:33;;;;;;;15.07;5.90;;;;;;;12.90;64.23;101219.47;4897254;29;20412;-81
2024/03/21 00:20:04;;;;;;;6.87;4.27;;;;;;;12.96;63.76;101221.34;4879754;29;20438;-80
2024/03/21 00:22:32;;;;;;;7.73;4.57;;;;;;;12.87;63.80;101214.47;4891004;29;20438;-80
2024/03/21 00:25:00;;;;;;;5.90;4.23;;;;;;;13.05;63.12;101214.66;4891906;29;20436;-81
2024/03/21 00:27:27;;;;;;;13.13;6.13;;;;;;;13.00;63.32;101214.44;4882342;29;20514;-81
2024/03/21 00:29:56;;;;;;;5.23;3.37;;;;;;;12.93;63.79;101214.44;4882683;29;20421;-80
2024/03/21 00:32:23;;;;;;;9.13;4.73;;;;;;;13.06;63.10;101208.19;4890424;29;20540;-79
2024/03/21 00:34:51;;;;;;;5.93;4.20;;;;;;;12.99;63.48;101210.06;4902209;29;20461;-77
2024/03/21 00:37:18;;;;;;;8.87;3.63;;;;;;;13.00;63.34;101212.56;4905454;29;20676;-81
2024/03/21 00:39:48;;;;;;;10.83;4.37;;;;;;;12.92;63.86;101215.50;4911009;29;20455;-79
2024/03/21 00:42:16;;;;;;;6.43;4.97;;;;;;;12.97;63.90;101209.44;4890338;29;20450;-81
2024/03/21 00:44:47;;;;;;;8.80;5.77;;;;;;;12.98;63.66;101213.81;4888554;29;20454;-80
2024/03/21 00:47:15;;;;;;;5.90;4.90;;;;;;;13.16;63.40;101216.78;4888645;29;20972;-80
2024/03/21 00:49:43;;;;;;;6.43;4.27;;;;;;;13.15;63.39;101211.53;4892269;29;20782;-81
2024/03/21 00:52:10;;;;;;;5.93;5.27;;;;;;;13.13;64.05;101217.16;4888730;29;20433;-81
2024/03/21 00:54:38;;;;;;;10.07;4.13;;;;;;;13.11;64.18;101212.97;4888446;29;20521;-81
2024/03/21 00:57:07;;;;;;;10.10;6.00;;;;;;;13.05;65.00;101210.06;4888605;29;20824;-80
2024/03/21 00:59:35;;;;;;;8.30;4.63;;;;;;;12.91;65.30;101211.13;4892197;29;20466;-82
2024/03/21 01:02:02;;;;;;;7.83;4.30;;;;;;;12.86;65.99;101207.34;4890736;29;20422;-79
2024/03/21 01:04:31;;;;;;;7.20;4.77;;;;;;;12.77;66.76;101203.19;4883092;29;20725;-81
2024/03/21 01:06:59;;;;;;;17.60;5.37;;;;;;;12.83;67.12;101205.06;4877244;29;20421;-82
2024/03/21 01:09:29;;;;;;;7.33;4.57;;;;;;;12.86;66.73;101200.03;4887657;29;20438;-80
2024/03/21 01:11:58;;;;;;;6.43;5.17;;;;;;;12.91;67.29;101204.84;4891306;29;20590;-80
2024/03/21 01:14:26;;;;;;;10.20;5.57;;;;;;;13.05;66.84;101201.06;4889628;29;20450;-80
2024/03/21 01:16:53;;;;;;;11.33;4.57;;;;;;;12.98;67.23;101208.38;4891234;29;20436;-82
2024/03/21 01:19:21;;;;;;;9.47;4.97;;;;;;;12.92;67.93;101203.81;4889087;29;20424;-80
2024/03/21 01:21:49;;;;;;;10.60;5.67;;;;;;;12.85;69.21;101200.25;4892068;29;20437;-81
2024/03/21 01:24:17;;;;;;;7.57;4.83;;;;;;;12.88;69.15;101202.53;4892013;29;20425;-80
2024/03/21 01:26:44;;;;;;;7.20;5.30;;;;;;;12.58;71.10;101196.69;4874457;29;20472;-80
2024/03/21 01:29:12;;;;;;;9.50;5.00;;;;;;;12.64;71.05;101191.25;4886497;29;20809;-81
2024/03/21 01:31:39;;;;;;;15.33;5.97;;;;;;;12.71;70.89;101187.72;4892068;29;20571;-82
2024/03/21 01:34:07;;;;;;;8.30;5.10;;;;;;;12.66;71.21;101188.34;4887944;29;20462;-81
2024/03/21 01:36:44;;;;;;;7.73;4.73;;;;;;;12.56;71.34;101183.31;4888418;29;20445;-79
2024/03/21 01:39:14;;;;;;;6.40;5.50;;;;;;;12.32;72.88;101175.78;4888196;29;20461;-81
2024/03/21 01:41:41;;;;;;;6.07;3.57;;;;;;;12.55;72.93;101187.06;4887542;29;20439;-80
2024/03/21 01:44:16;;;;;;;6.47;4.40;;;;;;;12.38;72.54;101177.69;4888110;29;20466;-80
2024/03/21 01:46:43;;;;;;;9.87;4.60;;;;;;;12.49;72.59;101170.81;4885583;29;20416;-80
2024/03/21 01:49:12;;;;;;;8.00;4.90;;;;;;;12.42;73.42;101181.66;4888771;29;20863;-81
2024/03/21 01:51:40;;;;;;;7.43;5.50;;;;;;;12.44;73.40;101174.13;4894228;29;20470;-81
2024/03/21 01:54:10;;;;;;;5.50;4.10;;;;;;;12.26;75.81;101170.34;4875213;29;21041;-81
2024/03/21 01:56:40;;;;;;;6.30;5.17;;;;;;;12.14;77.37;101162.81;4888541;29;20437;-82
2024/03/21 01:59:08;;;;;;;6.27;4.77;;;;;;;12.12;79.04;101159.47;4888325;29;20428;-81
2024/03/21 02:01:36;;;;;;;6.90;5.30;;;;;;;12.08;79.08;101160.09;4887836;29;20533;-80
2024/03/21 02:04:05;;;;;;;7.93;4.27;;;;;;;12.23;78.79;101158.03;4898472;29;20468;-81
2024/03/21 02:06:34;;;;;;;7.83;4.50;;;;;;;12.16;79.13;101155.28;4898103;29;20470;-80
2024/03/21 02:09:06;;;;;;;10.37;5.57;;;;;;;12.20;80.20;101159.25;4882627;29;20779;-80
2024/03/21 02:11:35;;;;;;;10.60;4.73;;;;;;;12.18;80.57;101157.81;4898027;29;20509;-79
2024/03/21 02:14:07;;;;;;;11.10;5.47;;;;;;;12.13;81.33;101150.28;4893796;29;20458;-80
2024/03/21 02:16:34;;;;;;;6.30;4.20;;;;;;;12.10;82.59;101149.88;4899255;29;20478;-79
2024/03/21 02:19:03;;;;;;;7.33;4.60;;;;;;;12.06;83.34;101148.59;4887445;29;20483;-79
2024/03/21 02:24:18;;;;;;;11.33;6.00;;;;;;;12.16;83.38;101140.91;4909781;29;20489;-78
2024/03/21 02:26:45;;;;;;;10.03;4.73;;;;;;;12.00;84.07;101144.00;4903356;29;20446;-79
2024/03/21 02:29:13;;;;;;;9.20;4.93;;;;;;;11.94;85.31;101145.66;4904358;29;20445;-80
2024/03/21 02:31:40;;;;;;;9.60;5.07;;;;;;;12.06;85.14;101143.16;4904602;29;20482;-77
2024/03/21 02:34:23;;;;;;;7.60;5.90;;;;;;;12.07;83.99;101137.56;4902406;29;20464;-81
2024/03/21 02:36:53;;;;;;;10.60;5.93;;;;;;;11.93;85.74;101135.84;4896616;29;20442;-81
2024/03/21 02:39:37;;;;;;;5.67;4.57;;;;;;;11.92;86.18;101134.19;4903051;29;20581;-79
2024/03/21 02:42:05;;;;;;;13.03;5.00;;;;;;;11.84;86.68;101131.66;4895392;29;20426;-82
2024/03/21 02:44:32;;;;;;;8.17;5.17;;;;;;;11.85;86.60;101129.78;4872992;29;20466;-80
2024/03/21 02:47:43;;;;;;;10.03;6.03;;;;;;;11.78;88.64;101129.75;4886124;29;20529;-81
2024/03/21 02:53:01;;;;;;;11.00;5.43;;;;;;;11.83;88.04;101124.56;4891327;29;20413;-81
2024/03/21 02:55:36;;;;;;;11.97;6.70;;;;;;;11.80;88.14;101126.84;4896564;29;20453;-80
2024/03/21 02:58:05;;;;;;;4.60;3.50;;;;;;;11.79;88.26;101128.72;4879188;29;20452;-81
2024/03/21 03:00:32;;;;;;;19.80;5.70;;;;;;;11.81;89.29;101126.66;4887823;29;20413;-81
2024/03/21 03:03:00;;;;;;;8.00;5.20;;;;;;;11.91;88.95;101128.97;4887739;29;20477;-81
2024/03/21 03:05:28;;;;;;;6.27;4.97;;;;;;;11.96;87.99;101134.59;4887612;29;20405;-81
2024/03/21 03:07:56;;;;;;;8.17;4.47;;;;;;;11.83;88.44;101138.13;4886505;29;20567;-80
2024/03/21 03:10:23;;;;;;;6.50;4.10;;;;;;;11.94;88.66;101137.53;4886357;29;20533;-81
2024/03/21 03:12:52;;;;;;;11.77;6.30;;;;;;;11.85;89.16;101129.78;4888969;29;20424;-82
2024/03/21 03:15:19;;;;;;;8.53;6.43;;;;;;;11.79;90.37;101130.59;4898151;29;20472;-80
2024/03/21 03:17:47;;;;;;;6.57;5.23;;;;;;;11.71;91.71;101131.59;4880435;29;20408;-81
2024/03/21 03:20:14;;;;;;;8.30;5.07;;;;;;;11.72;91.98;101128.69;4891779;29;20982;-81
2024/03/21 03:22:42;;;;;;;10.97;5.70;;;;;;;11.68;92.84;101135.53;4886206;29;20413;-79
2024/03/21 03:25:09;;;;;;;14.33;6.07;;;;;;;11.70;92.38;101117.22;4878861;29;20480;-79
2024/03/21 03:27:36;;;;;;;9.70;5.50;;;;;;;11.65;93.06;101119.69;4882511;29;20448;-80
2024/03/21 03:30:06;;;;;;;15.60;8.17;;;;;;;11.70;93.24;101117.22;4885767;29;20476;-80
2024/03/21 03:32:37;;;;;;;16.40;6.30;;;;;;;11.67;92.93;101117.59;4887036;29;20505;-80
2024/03/21 03:37:51;;;;;;;8.67;5.80;;;;;;;11.68;93.80;101113.84;4905356;29;20529;-78
2024/03/21 03:40:19;;;;;;;11.37;6.73;;;;;;;11.69;93.97;101114.69;4897097;29;20432;-80
2024/03/21 03:42:47;;;;;;;9.40;6.03;;;;;;;11.66;93.50;101121.38;4899554;29;20413;-79
2024/03/21 03:45:16;;;;;;;15.40;8.07;;;;;;;11.68;93.67;101116.56;4894018;29;20534;-80
2024/03/21 03:47:44;;;;;;;11.00;7.10;;;;;;;11.77;93.33;101118.06;4870149;29;20442;-79
2024/03/21 03:50:11;;;;;;;10.43;7.37;;;;;;;11.76;94.16;101121.81;4887305;29;20472;-79
2024/03/21 03:52:39;;;;;;;10.20;6.00;;;;;;;11.79;93.88;101119.75;4889581;29;20437;-79
2024/03/21 03:55:06;;;;;;;14.40;7.13;;;;;;;11.58;94.24;101118.81;4882418;29;20472;-79
2024/03/21 03:57:34;;;;;;;12.60;7.23;;;;;;;11.51;95.43;101120.69;4897694;29;20468;-80
2024/03/21 04:00:01;;;;;;;11.27;4.90;;;;;;;11.60;95.18;101110.50;4899507;29;20405;-78
2024/03/21 04:02:43;;;;;;;10.87;5.30;;;;;;;11.53;95.94;101115.88;4910166;29;20425;-78
2024/03/21 04:05:10;;;;;;;16.33;7.50;;;;;;;11.45;95.85;101110.66;4916426;29;20421;-78
2024/03/21 04:07:38;;;;;;;8.60;5.77;;;;;;;11.41;97.00;101117.53;4904406;29;20472;-77
2024/03/21 04:10:06;;;;;;;8.50;5.00;;;;;;;11.50;97.39;101116.28;4888861;29;20601;-77
2024/03/21 04:12:34;;;;;;;8.17;6.47;;;;;;;11.46;98.18;101109.63;4904235;29;20569;-78
2024/03/21 04:15:01;;;;;;;7.17;4.27;;;;;;;11.41;98.87;101109.38;4907192;29;20427;-77
2024/03/21 04:17:29;;;;;;;10.03;7.60;;;;;;;11.40;98.76;101115.84;4914944;29;20400;-78
2024/03/21 04:19:57;;;;;;;12.60;6.30;;;;;;;11.36;99.14;101119.16;4900300;29;20469;-79
2024/03/21 04:22:25;;;;;;;9.00;6.50;;;;;;;11.29;99.69;101111.81;4889877;29;20538;-80
2024/03/21 04:24:52;;;;;;;13.03;5.20;;;;;;;11.37;99.80;101110.00;4880936;29;20525;-81
2024/03/21 04:27:20;;;;;;;10.37;6.53;;;;;;;11.36;98.97;101109.16;4875672;29;20437;-80
2024/03/21 04:29:48;;;;;;;8.07;4.90;;;;;;;11.26;98.80;101114.13;4888136;29;20495;-81
2024/03/21 04:32:17;;;;;;;9.23;6.33;;;;;;;11.14;98.95;101108.41;4886545;29;20598;-81
2024/03/21 04:34:44;;;;;;;11.73;5.60;;;;;;;11.17;99.79;101104.47;4878349;29;20957;-81
2024/03/21 04:37:17;;;;;;;9.60;5.50;;;;;;;11.18;99.94;101112.38;4887572;29;20434;-80
2024/03/21 04:39:45;;;;;;;9.50;4.80;;;;;;;11.12;100.00;101110.50;4887349;29;20450;-80
2024/03/21 04:42:14;;;;;;;9.17;5.57;;;;;;;11.13;100.00;101105.94;4886810;29;20462;-80
2024/03/21 04:44:42;;;;;;;10.27;4.73;;;;;;;11.14;100.00;101111.13;4887761;29;20465;-80
2024/03/21 04:47:10;;;;;;;7.93;5.33;;;;;;;11.14;100.00;101110.28;4889734;29;20939;-80
2024/03/21 04:49:38;;;;;;;8.93;6.10;;;;;;;10.98;100.00;101105.22;4896118;29;20416;-81
2024/03/21 04:52:05;;;;;;;11.23;7.67;;;;;;;11.00;100.00;101103.13;4906277;29;20613;-80
2024/03/21 04:54:35;;;;;;;8.70;5.53;;;;;;;11.12;100.00;101113.22;4901068;29;20440;-80
2024/03/21 04:57:02;;;;;;;9.33;6.63;;;;;;;11.08;100.00;101108.41;4876487;29;20435;-79
2024/03/21 04:59:30;;;;;;;9.83;6.73;;;;;;;11.10;100.00;101109.00;4889534;29;20553;-80
2024/03/21 05:01:57;;;;;;;8.10;5.03;;;;;;;11.01;100.00;101111.06;4890191;29;21095;-80
2024/03/21 05:04:25;;;;;;;6.53;4.73;;;;;;;10.92;100.00;101100.59;4891954;29;20491;-80
2024/03/21 05:06:52;;;;;;;8.47;6.80;;;;;;;10.95;100.00;101101.03;4895323;29;20507;-80
2024/03/21 05:09:21;;;;;;;7.30;5.80;;;;;;;10.92;100.00;101093.31;4891907;29;20434;-82
2024/03/21 05:11:49;;;;;;;9.93;6.60;;;;;;;10.80;100.00;101097.59;4897418;29;20489;-77
2024/03/21 05:14:17;;;;;;;9.93;5.97;;;;;;;10.73;100.00;101092.16;4899105;29;20451;-79
2024/03/21 05:16:45;;;;;;;13.50;5.30;;;;;;;10.73;100.00;101089.44;4901582;29;20466;-78
2024/03/21 05:19:13;;;;;;;10.87;7.03;;;;;;;10.87;100.00;101083.06;4899832;29;20498;-78
2024/03/21 05:21:40;;;;;;;9.37;5.43;;;;;;;10.98;100.00;101083.56;4906166;29;20438;-77
2024/03/21 05:24:09;;;;;;;13.10;9.30;;;;;;;11.10;100.00;101079.22;4902499;28;20524;-80
2024/03/21 05:26:36;;;;;;;22.80;5.43;;;;;;;11.20;100.00;101077.81;4889270;29;20466;-80
2024/03/21 05:29:05;;;;;;;8.13;7.37;;;;;;;11.18;100.00;101084.50;4890814;29;20442;-80
2024/03/21 05:31:32;;;;;;;8.53;5.40;;;;;;;11.20;100.00;101079.69;4896219;29;20486;-82
2024/03/21 05:34:00;;;;;;;7.60;5.10;;;;;;;11.32;100.00;101081.63;4906550;29;20435;-81
2024/03/21 05:36:27;;;;;;;8.33;6.00;;;;;;;11.22;100.00;101080.34;4896808;29;20439;-80
2024/03/21 05:38:56;;;;;;;10.80;6.60;;;;;;;11.32;100.00;101083.50;4890582;29;20514;-81
2024/03/21 05:41:23;;;;;;;7.80;6.37;;;;;;;11.15;100.00;101084.88;4905249;29;20413;-81
2024/03/21 05:43:50;;;;;;;9.40;6.23;;;;;;;11.08;100.00;101078.59;4892726;29;20478;-80
2024/03/21 05:46:19;;;;;;;10.57;5.73;;;;;;;10.95;100.00;101083.94;4890317;29;20521;-81
2024/03/21 05:48:47;;;;;;;15.03;4.50;;;;;;;11.05;100.00;101087.13;4888909;29;20823;-82
2024/03/21 05:51:14;;;;;;;13.30;5.93;;;;;;;11.12;100.00;101088.00;4888590;29;20470;-81
2024/03/21 05:53:42;;;;;;;5.87;4.90;;;;;;;11.30;100.00;101082.88;4888429;29;20521;-80
2024/03/21 05:56:09;;;;;;;8.30;5.83;;;;;;;11.42;100.00;101091.25;4886273;29;20442;-82
2024/03/21 05:58:37;;;;;;;7.20;5.33;;;;;;;11.32;100.00;101086.22;4876462;29;20459;-80
2024/03/21 06:01:22;;;;;;;8.17;5.43;;;;;;;11.61;99.04;101085.06;4887333;29;21005;-81
2024/03/21 06:03:51;;;;;;;8.67;4.57;;;;;;;11.63;98.40;101081.09;4878752;29;20554;-82
2024/03/21 06:06:19;;;;;;;12.33;6.37;;;;;;;11.57;99.08;101084.63;4870892;29;20498;-81
2024/03/21 06:08:46;;;;;;;12.40;5.93;;;;;;;11.66;98.46;101094.25;4884737;29;20514;-81
2024/03/21 06:11:14;;;;;;;9.47;4.37;;;;;;;11.67;98.88;101078.81;4884551;29;20413;-81
2024/03/21 06:13:41;;;;;;;6.83;6.10;;;;;;;11.73;98.43;101081.56;4868235;29;20996;-81
2024/03/21 06:16:09;;;;;;;14.67;6.53;;;;;;;11.68;98.80;101081.31;4886187;29;20963;-81
2024/03/21 06:18:36;;;;;;;12.33;5.93;;;;;;;11.64;99.11;101080.06;4892575;29;20459;-80
2024/03/21 06:21:05;;;;;;;15.13;5.90;;;;;;;11.67;99.60;101076.09;4888764;29;20439;-80
2024/03/21 06:23:32;;;;;;;9.73;5.30;;;;;;;11.72;99.59;101077.19;4887105;29;20534;-79
2024/03/21 06:26:00;;;;;;;7.87;5.07;;;;;;;11.74;99.52;101083.25;4888066;29;20781;-81
2024/03/21 06:28:27;;;;;;;9.57;7.10;;;;;;;11.95;98.35;101070.56;4871881;29;20443;-80
2024/03/21 06:30:56;;;;;;;13.83;7.13;;;;;;;11.97;97.23;101076.59;4895618;29;20445;-82
2024/03/21 06:33:23;;;;;;;10.50;6.97;;;;;;;12.07;96.75;101068.91;4888768;29;20478;-82
2024/03/21 06:35:50;;;;;;;7.63;6.37;;;;;;;12.03;97.14;101078.50;4872398;29;20446;-80
2024/03/21 06:38:19;;;;;;;8.33;5.60;;;;;;;12.16;95.86;101078.50;4891538;29;20446;-81
2024/03/21 06:40:47;;;;;;;12.77;7.50;;;;;;;12.06;96.67;101080.78;4876465;29;20443;-81
2024/03/21 06:43:14;;;;;;;10.10;6.43;;;;;;;12.03;97.28;101083.91;4874107;29;20958;-81
2024/03/21 06:45:56;;;;;;;12.53;6.00;;;;;;;12.09;97.50;101099.38;4892130;29;20442;-81
2024/03/21 06:48:24;;;;;;;9.33;7.17;;;;;;;11.99;97.82;101115.22;4887994;29;20902;-80
2024/03/21 06:50:52;;;;;;;15.67;10.27;;;;;;;11.86;98.11;101131.47;4896413;29;20920;-79
2024/03/21 06:53:22;;;;;;;9.57;7.47;;;;;;;11.55;100.00;101157.19;4900426;29;20513;-78
2024/03/21 06:55:53;;;;;;;8.60;5.57;;;;;;;11.39;100.00;101156.69;4887633;29;20529;-78
2024/03/21 06:58:20;;;;;;;7.27;4.97;;;;;;;11.29;100.00;101140.78;4873480;29;20502;-79
2024/03/21 07:00:48;;;;;;;12.93;7.50;;;;;;;11.39;100.00;101149.38;4891398;29;20438;-78
2024/03/21 07:03:15;;;;;;;11.30;6.60;;;;;;;11.36;100.00;101166.06;4887041;29;20897;-77
2024/03/21 07:05:44;;;;;;;9.10;6.07;;;;;;;10.95;100.00;101178.69;4892079;29;20469;-77
2024/03/21 07:08:10;;;;;;;17.00;6.50;;;;;;;10.64;100.00;101179.13;4897673;29;20443;-78
2024/03/21 07:10:40;;;;;;;11.10;6.23;;;;;;;10.53;100.00;101180.47;4897400;29;20459;-79
2024/03/21 07:13:07;;;;;;;7.50;6.07;;;;;;;10.53;100.00;101179.63;4894763;29;20565;-78
2024/03/21 07:15:34;;;;;;;14.53;5.03;;;;;;;10.64;100.00;101177.25;4885033;29;20462;-78
2024/03/21 07:18:01;;;;;;;13.40;6.50;;;;;;;10.81;100.00;101186.75;4884630;29;20450;-79
2024/03/21 07:20:30;;;;;;;5.60;4.80;;;;;;;10.68;100.00;101185.81;4887610;29;20553;-80
2024/03/21 07:22:57;;;;;;;16.13;11.27;;;;;;;10.52;100.00;101186.91;4884445;29;20478;-79
2024/03/21 07:25:25;;;;;;;11.90;8.00;;;;;;;10.73;100.00;101186.06;4882573;29;20585;-77
2024/03/21 07:27:53;;;;;;;9.80;6.03;;;;;;;10.65;100.00;101187.00;4880996;29;20417;-77
2024/03/21 07:30:21;;;;;;;5.93;5.10;;;;;;;10.68;100.00;101188.50;4886696;29;20404;-80
2024/03/21 07:32:50;;;;;;;11.63;7.40;;;;;;;10.67;100.00;101186.84;4887887;29;20505;-78
2024/03/21 07:35:18;;;;;;;16.10;6.47;;;;;;;10.67;100.00;101187.66;4887515;29;20423;-79
2024/03/21 07:37:45;;;;;;;11.30;5.77;;;;;;;10.84;100.00;101186.34;4883896;29;20433;-79
2024/03/21 07:40:13;;;;;;;12.23;6.80;;;;;;;11.14;100.00;101196.97;4886384;29;21001;-79
2024/03/21 07:42:40;;;;;;;8.47;4.60;;;;;;;11.07;100.00;101207.78;4879724;29;21023;-78
2024/03/21 07:45:11;;;;;;;14.17;6.23;;;;;;;10.73;100.00;101211.25;4884471;29;20490;-79
2024/03/21 07:47:40;;;;;;;13.73;7.07;;;;;;;10.64;100.00;101215.13;4878103;29;20805;-79
2024/03/21 07:50:08;;;;;;;7.90;6.13;;;;;;;10.70;100.00;101222.44;4886840;29;20205;-79
2024/03/21 07:52:35;;;;;;;14.70;8.73;;;;;;;10.80;100.00;101232.94;4885198;29;20823;-78
2024/03/21 07:55:03;;;;;;;11.93;8.13;;;;;;;10.88;100.00;101228.25;4886634;29;21024;-79
2024/03/21 07:57:30;;;;;;;12.83;8.63;;;;;;;10.78;100.00;101241.28;4889148;29;20446;-77
2024/03/21 07:59:58;;;;;;;7.97;6.10;;;;;;;10.71;100.00;101239.53;4886078;29;20962;-76
2024/03/21 08:02:26;;;;;;;15.23;7.70;;;;;;;10.61;100.00;101250.69;4893084;29;20576;-77
2024/03/21 08:04:54;;;;;;;12.70;6.40;;;;;;;10.51;100.00;101244.75;4893198;29;20468;-76
2024/03/21 08:07:22;;;;;;;11.52;7.28;;;;;;;10.38;100.00;101236.53;4893318;29;20800;-76
2024/03/21 08:09:50;;;;;;;20.13;8.63;;;;;;;10.42;100.00;101245.91;4895095;29;20197;-77
2024/03/21 08:12:17;;;;;;;12.23;7.80;;;;;;;10.46;100.00;101237.22;4904767;29;20202;-78
2024/03/21 08:14:45;;;;;;;13.47;8.20;;;;;;;10.54;100.00;101238.13;4879940;29;20466;-78
2024/03/21 08:17:12;;;;;;;9.93;7.35;;;;;;;10.66;100.00;101242.81;4879271;29;20935;-78
2024/03/21 08:19:45;;;;;;;11.95;6.60;;;;;;;10.81;100.00;101240.03;4880736;29;20297;-78
2024/03/21 08:22:12;;;;;;;9.70;6.43;;;;;;;10.94;100.00;101225.78;4891509;29;20190;-78
2024/03/21 08:24:40;;;;;;;11.43;7.00;;;;;;;11.05;100.00;101230.66;4891057;29;20469;-80
2024/03/21 08:27:07;;;;;;;19.40;7.90;;;;;;;10.92;100.00;101225.97;4891233;29;20442;-80
2024/03/21 08:29:34;;;;;;;8.80;6.50;;;;;;;11.05;100.00;101230.66;4893521;29;20530;-77
2024/03/21 08:32:01;;;;;;;16.03;8.60;;;;;;;10.92;100.00;101239.53;4891263;29;20561;-77
2024/03/21 08:34:29;;;;;;;7.00;6.07;;;;;;;11.08;100.00;101235.69;4901449;29;20434;-77
2024/03/21 08:36:57;;;;;;;12.10;9.27;;;;;;;11.08;100.00;101243.81;4902633;29;20469;-76
2024/03/21 08:39:26;;;;;;;14.40;8.33;;;;;;;11.03;100.00;101244.41;4904730;29;20445;-75
2024/03/21 08:41:53;;;;;;;13.10;10.10;;;;;;;10.90;100.00;101250.53;4909938;29;20493;-75
2024/03/21 08:44:21;;;;;;;18.90;8.97;;;;;;;11.03;100.00;101254.41;4898247;29;20454;-77
2024/03/21 08:46:48;;;;;;;21.43;10.53;;;;;;;11.05;100.00;101252.31;4904014;29;20453;-77
2024/03/21 08:49:16;;;;;;;18.73;7.00;;;;;;;11.00;100.00;101262.91;4898561;29;20498;-77
2024/03/21 08:51:43;;;;;;;7.70;5.37;;;;;;;10.88;100.00;101255.31;4904030;29;20470;-75
2024/03/21 08:54:12;;;;;;;17.13;8.20;;;;;;;10.72;100.00;101257.47;4923456;29;20465;-76
2024/03/21 08:56:39;;;;;;;8.93;7.17;;;;;;;10.72;100.00;101247.47;4895618;29;20438;-79
2024/03/21 08:59:07;;;;;;;8.50;5.70;;;;;;;10.78;100.00;101237.75;4893597;29;20826;-79
2024/03/21 09:01:34;;;;;;;9.20;7.00;;;;;;;10.80;100.00;101230.25;4892820;29;20445;-78
2024/03/21 09:04:02;;;;;;;13.60;6.90;;;;;;;10.90;100.00;101228.88;4889596;29;20823;-79
2024/03/21 09:06:30;;;;;;;18.33;8.53;;;;;;;10.83;100.00;101233.41;4885280;29;20449;-78
2024/03/21 09:08:58;;;;;;;17.53;7.73;;;;;;;10.78;100.00;101241.28;4885763;29;20446;-79
2024/03/21 09:11:28;;;;;;;9.33;6.97;;;;;;;11.32;100.00;101237.94;4888408;29;20538;-79
2024/03/21 09:13:57;;;;;;;15.73;8.83;;;;;;;11.55;100.00;101235.78;4892950;29;20520;-77
2024/03/21 09:16:24;;;;;;;12.53;8.90;;;;;;;11.62;100.00;101238.50;4873627;29;20457;-78
2024/03/21 09:18:52;;;;;;;15.13;9.93;;;;;;;11.67;100.00;101236.88;4890763;29;20446;-79
2024/03/21 09:21:19;;;;;;;12.87;9.93;;;;;;;11.86;100.00;101235.31;4859286;29;20945;-80
2024/03/21 09:23:47;;;;;;;11.57;8.17;;;;;;;11.82;100.00;101225.09;4885820;29;20990;-78
2024/03/21 09:26:17;;;;;;;24.33;9.13;;;;;;;11.87;100.00;101225.31;4878788;29;20510;-78
2024/03/21 09:28:45;;;;;;;11.70;9.10;;;;;;;11.87;100.00;101214.47;4887874;29;20438;-78
2024/03/21 09:31:13;;;;;;;12.50;5.57;;;;;;;11.92;100.00;101210.13;4888021;29;20802;-78
2024/03/21 09:33:40;;;;;;;15.03;9.90;;;;;;;12.18;100.00;101203.94;4888692;29;20486;-78
2024/03/21 09:36:08;;;;;;;15.63;9.53;;;;;;;12.20;100.00;101202.69;4890821;29;20439;-77
2024/03/21 09:38:35;;;;;;;10.18;7.65;;;;;;;12.29;100.00;101197.06;4889975;29;20814;-77
2024/03/21 09:41:09;;;;;;;12.70;7.10;;;;;;;12.16;100.00;101187.00;4884471;29;20194;-77
2024/03/21 09:43:36;;;;;;;11.10;6.60;;;;;;;12.15;100.00;101179.94;4881243;29;20518;-78
2024/03/21 09:46:08;;;;;;;15.33;9.53;;;;;;;12.44;100.00;101176.81;4888531;29;20407;-77
2024/03/21 09:48:35;;;;;;;7.37;6.63;;;;;;;12.72;100.00;101171.22;4896659;29;20446;-80
2024/03/21 09:51:03;;;;;;;11.80;8.30;;;;;;;13.04;100.00;101174.94;4884939;29;20462;-77
2024/03/21 09:53:30;;;;;;;13.70;7.27;;;;;;;13.11;100.00;101162.22;4887754;29;20511;-77
2024/03/21 09:55:58;;;;;;;11.70;6.77;;;;;;;13.14;100.00;101161.78;4882366;29;20447;-78
2024/03/21 09:58:25;;;;;;;15.00;7.20;;;;;;;13.34;100.00;101154.41;4885320;29;20416;-78
2024/03/21 10:00:56;;;;;;;8.63;5.97;;;;;;;13.64;100.00;101164.78;4894794;29;20446;-79
2024/03/21 10:03:25;;;;;;;8.63;5.70;;;;;;;13.77;100.00;101164.69;4895251;29;20432;-79
2024/03/21 10:06:05;;;;;;;7.00;4.80;;;;;;;13.68;100.00;101150.53;4893778;29;20453;-75
2024/03/21 10:08:32;;;;;;;8.00;5.30;;;;;;;13.91;100.00;101152.69;4895480;29;20491;-77
2024/03/21 10:11:02;;;;;;;8.50;6.13;;;;;;;14.02;100.00;101141.13;4894482;29;20432;-77
2024/03/21 10:13:34;;;;;;;10.30;6.80;;;;;;;14.26;100.00;101153.13;4899424;29;20553;-76
2024/03/21 10:16:02;;;;;;;5.90;4.80;;;;;;;14.04;100.00;101149.88;4900655;29;20497;-76
2024/03/21 10:18:39;;;;;;;7.13;6.20;;;;;;;14.11;100.00;101155.31;4894069;29;20393;-77
2024/03/21 10:21:13;;;;;;;6.40;3.70;;;;;;;14.37;100.00;101160.63;4890657;29;20452;-77
2024/03/21 10:23:41;;;;;;;10.33;6.93;;;;;;;14.52;100.00;101157.56;4889783;29;20515;-78
2024/03/21 10:26:14;;;;;;;6.90;5.60;;;;;;;14.37;100.00;101170.66;4888767;29;20777;-77
2024/03/21 10:28:41;;;;;;;7.30;4.77;;;;;;;14.23;100.00;101153.56;4893990;29;20933;-77
2024/03/21 10:31:13;;;;;;;10.60;4.73;;;;;;;14.00;100.00;101165.00;4895099;29;20512;-78
2024/03/21 10:33:44;;;;;;;3.93;3.63;;;;;;;13.95;100.00;101162.09;4905473;29;20456;-78
2024/03/21 10:36:14;;;;;;;3.33;2.60;;;;;;;14.07;100.00;101163.09;4889284;29;20405;-78
2024/03/21 10:38:40;;;;;;;2.43;2.20;;;;;;;14.31;98.79;101170.47;4889389;29;20447;-75
2024/03/21 10:41:13;;;;;;;5.20;4.20;;;;;;;14.74;99.14;101167.00;4895901;29;20826;-77
2024/03/21 10:43:43;;;;;;;4.90;4.10;;;;;;;14.83;96.65;101156.66;4872907;29;20444;-78
2024/03/21 10:46:12;;;;;;;3.00;2.17;;;;;;;14.95;93.94;101161.16;4905497;29;20920;-78
2024/03/21 10:48:41;;;;;;;3.43;3.23;;;;;;;15.02;91.51;101161.91;4887718;29;20417;-79
2024/03/21 10:51:11;;;;;;;5.00;3.33;;;;;;;15.11;90.50;101166.03;4882165;29;20420;-76
2024/03/21 10:53:39;;;;;;;5.00;2.30;;;;;;;15.32;91.30;101169.38;4879259;29;20460;-78
2024/03/21 10:56:09;;;;;;;4.37;2.50;;;;;;;15.62;91.02;101175.78;4896805;29;20517;-76
2024/03/21 10:58:42;;;;;;;2.87;2.10;;;;;;;16.35;89.06;101183.81;4906847;29;20420;-75
2024/03/21 11:01:13;;;;;;;2.10;1.57;;;;;;;16.27;87.37;101190.41;4904165;29;20414;-75
2024/03/21 11:03:51;;;;;;;2.93;2.60;;;;;;;16.62;84.89;101198.75;4900237;29;20480;-74
2024/03/21 11:06:20;;;;;;;3.27;2.97;;;;;;;16.11;85.28;101203.91;4904670;29;20469;-75
2024/03/21 11:08:54;;;;;;;2.87;2.10;;;;;;;16.15;87.40;101207.84;4894012;29;20416;-75
2024/03/21 11:11:21;;;;;;;1.60;1.50;;;;;;;15.92;86.61;101214.03;4899748;29;20427;-77
2024/03/21 11:13:48;;;;;;;2.20;2.00;;;;;;;15.92;88.07;101214.84;4890985;29;20496;-78
2024/03/21 11:16:16;;;;;;;2.83;2.23;;;;;;;15.39;87.87;101213.78;4892103;29;20417;-77
2024/03/21 11:18:44;;;;;;;5.27;2.67;;;;;;;15.79;91.49;101216.91;4888136;29;20911;-78
2024/03/21 11:21:15;;;;;;;3.43;2.80;;;;;;;15.85;87.42;101219.56;4889875;29;20515;-78
2024/03/21 11:23:43;;;;;;;2.93;2.00;;;;;;;15.98;86.37;101224.84;4886245;29;20439;-77
2024/03/21 11:26:15;;;;;;;2.97;2.50;;;;;;;16.16;84.62;101220.44;4884744;29;20412;-77
2024/03/21 11:28:42;;;;;;;2.83;2.63;;;;;;;15.97;86.48;101216.91;4876086;29;20424;-77
2024/03/21 11:31:20;;;;;;;2.60;1.80;;;;;;;16.04;86.60;101213.00;4886296;29;20825;-77